sensor_id;sensor_type;location;lat;lon;timestamp;pressure;altitude;pressure_sealevel;temperature;humidity
52935;BME280;38802;50.198;19.796;2022-12-29T00:01:01;96148.59;;;2.38;71.05
52935;BME280;38802;50.198;19.796;2022-12-29T00:03:29;96149.05;;;2.40;71.01
52935;BME280;38802;50.198;19.796;2022-12-29T00:05:58;96143.35;;;2.40;71.22
52935;BME280;38802;50.198;19.796;2022-12-29T00:08:27;96145.89;;;2.41;71.47
52935;BME280;38802;50.198;19.796;2022-12-29T00:11:10;96151.02;;;2.41;70.84
52935;BME280;38802;50.198;19.796;2022-12-29T00:13:39;96152.59;;;2.41;71.12
52935;BME280;38802;50.198;19.796;2022-12-29T00:16:27;96150.49;;;2.41;71.26
52935;BME280;38802;50.198;19.796;2022-12-29T00:18:55;96151.67;;;2.42;71.02
52935;BME280;38802;50.198;19.796;2022-12-29T00:21:24;96148.20;;;2.43;71.10
52935;BME280;38802;50.198;19.796;2022-12-29T00:24:14;96143.42;;;2.45;70.85
52935;BME280;38802;50.198;19.796;2022-12-29T00:26:43;96144.84;;;2.48;70.94
52935;BME280;38802;50.198;19.796;2022-12-29T00:29:29;96147.08;;;2.51;70.92
52935;BME280;38802;50.198;19.796;2022-12-29T00:32:16;96143.34;;;2.54;70.82
52935;BME280;38802;50.198;19.796;2022-12-29T00:35:04;96140.04;;;2.55;70.80
52935;BME280;38802;50.198;19.796;2022-12-29T00:37:42;96140.19;;;2.55;70.74
52935;BME280;38802;50.198;19.796;2022-12-29T00:40:29;96143.94;;;2.56;70.87
52935;BME280;38802;50.198;19.796;2022-12-29T00:43:16;96146.13;;;2.56;70.77
52935;BME280;38802;50.198;19.796;2022-12-29T00:46:03;96145.70;;;2.55;70.82
52935;BME280;38802;50.198;19.796;2022-12-29T00:48:32;96141.99;;;2.53;70.77
52935;BME280;38802;50.198;19.796;2022-12-29T00:51:19;96137.06;;;2.52;70.84
52935;BME280;38802;50.198;19.796;2022-12-29T00:53:47;96132.90;;;2.50;70.83
52935;BME280;38802;50.198;19.796;2022-12-29T00:56:15;96136.04;;;2.49;70.77
52935;BME280;38802;50.198;19.796;2022-12-29T00:58:44;96137.30;;;2.47;71.03
52935;BME280;38802;50.198;19.796;2022-12-29T01:01:13;96133.35;;;2.48;70.88
52935;BME280;38802;50.198;19.796;2022-12-29T01:03:41;96131.08;;;2.49;70.56
52935;BME280;38802;50.198;19.796;2022-12-29T01:06:10;96133.15;;;2.48;70.92
52935;BME280;38802;50.198;19.796;2022-12-29T01:08:39;96129.98;;;2.50;70.91
52935;BME280;38802;50.198;19.796;2022-12-29T01:11:10;96128.34;;;2.52;71.17
52935;BME280;38802;50.198;19.796;2022-12-29T01:13:39;96125.11;;;2.51;70.92
52935;BME280;38802;50.198;19.796;2022-12-29T01:16:09;96121.68;;;2.51;70.95
52935;BME280;38802;50.198;19.796;2022-12-29T01:18:37;96112.30;;;2.50;70.83
52935;BME280;38802;50.198;19.796;2022-12-29T01:21:05;96112.77;;;2.51;70.64
52935;BME280;38802;50.198;19.796;2022-12-29T01:23:34;96113.38;;;2.52;70.68
52935;BME280;38802;50.198;19.796;2022-12-29T01:26:13;96114.62;;;2.56;70.61
52935;BME280;38802;50.198;19.796;2022-12-29T01:28:42;96108.40;;;2.56;70.75
52935;BME280;38802;50.198;19.796;2022-12-29T01:31:13;96110.58;;;2.57;70.75
52935;BME280;38802;50.198;19.796;2022-12-29T01:33:42;96110.57;;;2.58;70.84
52935;BME280;38802;50.198;19.796;2022-12-29T01:36:14;96105.02;;;2.58;70.67
52935;BME280;38802;50.198;19.796;2022-12-29T01:38:44;96106.84;;;2.60;70.59
52935;BME280;38802;50.198;19.796;2022-12-29T01:41:14;96107.40;;;2.63;70.30
52935;BME280;38802;50.198;19.796;2022-12-29T01:51:40;96106.20;;;2.62;70.56
52935;BME280;38802;50.198;19.796;2022-12-29T01:54:26;96103.28;;;2.63;70.46
52935;BME280;38802;50.198;19.796;2022-12-29T01:56:57;96097.13;;;2.62;70.30
52935;BME280;38802;50.198;19.796;2022-12-29T01:59:31;96093.42;;;2.64;70.44
52935;BME280;38802;50.198;19.796;2022-12-29T02:02:00;96091.61;;;2.66;70.29
52935;BME280;38802;50.198;19.796;2022-12-29T02:04:31;96096.69;;;2.67;70.22
52935;BME280;38802;50.198;19.796;2022-12-29T02:07:04;96095.84;;;2.70;70.59
52935;BME280;38802;50.198;19.796;2022-12-29T02:09:35;96089.36;;;2.73;70.52
52935;BME280;38802;50.198;19.796;2022-12-29T02:12:03;96082.30;;;2.76;70.64
52935;BME280;38802;50.198;19.796;2022-12-29T02:14:32;96079.77;;;2.78;70.11
52935;BME280;38802;50.198;19.796;2022-12-29T02:25:57;96070.41;;;2.87;70.25
52935;BME280;38802;50.198;19.796;2022-12-29T02:29:19;96063.98;;;2.89;69.89
52935;BME280;38802;50.198;19.796;2022-12-29T02:31:58;96060.14;;;2.90;70.04
52935;BME280;38802;50.198;19.796;2022-12-29T02:34:58;96059.13;;;2.92;70.08
52935;BME280;38802;50.198;19.796;2022-12-29T02:43:09;96048.48;;;3.02;69.72
52935;BME280;38802;50.198;19.796;2022-12-29T02:45:53;96048.34;;;3.04;69.82
52935;BME280;38802;50.198;19.796;2022-12-29T02:48:43;96036.96;;;3.05;69.73
52935;BME280;38802;50.198;19.796;2022-12-29T02:51:50;96037.02;;;3.10;69.71
52935;BME280;38802;50.198;19.796;2022-12-29T02:54:20;96044.25;;;3.10;69.70
52935;BME280;38802;50.198;19.796;2022-12-29T02:59:51;96040.83;;;3.10;69.72
52935;BME280;38802;50.198;19.796;2022-12-29T03:13:46;96043.77;;;3.03;70.00
52935;BME280;38802;50.198;19.796;2022-12-29T03:16:44;96044.10;;;3.00;70.09
52935;BME280;38802;50.198;19.796;2022-12-29T03:21:45;96045.50;;;2.97;70.12
52935;BME280;38802;50.198;19.796;2022-12-29T03:24:43;96045.39;;;2.96;70.11
52935;BME280;38802;50.198;19.796;2022-12-29T03:27:22;96045.22;;;2.96;70.11
52935;BME280;38802;50.198;19.796;2022-12-29T03:29:58;96044.67;;;2.96;70.13
52935;BME280;38802;50.198;19.796;2022-12-29T03:32:33;96042.11;;;3.02;70.27
52935;BME280;38802;50.198;19.796;2022-12-29T03:35:04;96035.60;;;3.05;70.34
52935;BME280;38802;50.198;19.796;2022-12-29T03:37:50;96033.38;;;3.05;70.11
52935;BME280;38802;50.198;19.796;2022-12-29T03:40:21;96030.75;;;3.02;70.20
52935;BME280;38802;50.198;19.796;2022-12-29T03:42:52;96037.90;;;3.01;70.28
52935;BME280;38802;50.198;19.796;2022-12-29T03:45:21;96032.21;;;2.98;70.19
52935;BME280;38802;50.198;19.796;2022-12-29T03:47:51;96030.81;;;2.98;70.12
52935;BME280;38802;50.198;19.796;2022-12-29T03:50:20;96030.23;;;2.97;70.05
52935;BME280;38802;50.198;19.796;2022-12-29T03:52:48;96028.44;;;2.95;70.17
52935;BME280;38802;50.198;19.796;2022-12-29T03:55:16;96032.27;;;2.94;70.28
52935;BME280;38802;50.198;19.796;2022-12-29T03:57:45;96028.06;;;2.96;70.36
52935;BME280;38802;50.198;19.796;2022-12-29T04:00:18;96022.42;;;2.95;70.04
52935;BME280;38802;50.198;19.796;2022-12-29T04:02:49;96031.35;;;2.95;69.96
52935;BME280;38802;50.198;19.796;2022-12-29T04:05:21;96038.69;;;2.96;69.91
52935;BME280;38802;50.198;19.796;2022-12-29T04:07:52;96037.13;;;2.96;70.13
52935;BME280;38802;50.198;19.796;2022-12-29T04:10:20;96039.25;;;2.98;70.22
52935;BME280;38802;50.198;19.796;2022-12-29T04:12:51;96045.05;;;2.98;70.27
52935;BME280;38802;50.198;19.796;2022-12-29T04:15:20;96042.83;;;2.98;69.99
52935;BME280;38802;50.198;19.796;2022-12-29T04:17:49;96037.56;;;3.00;70.02
52935;BME280;38802;50.198;19.796;2022-12-29T04:20:17;96027.91;;;3.01;70.05
52935;BME280;38802;50.198;19.796;2022-12-29T04:23:07;96020.76;;;3.04;69.94
52935;BME280;38802;50.198;19.796;2022-12-29T04:25:36;96014.53;;;3.05;69.88
52935;BME280;38802;50.198;19.796;2022-12-29T04:28:04;96003.53;;;3.05;70.00
52935;BME280;38802;50.198;19.796;2022-12-29T04:30:48;96006.88;;;3.06;69.71
52935;BME280;38802;50.198;19.796;2022-12-29T04:33:23;95995.59;;;3.06;69.88
52935;BME280;38802;50.198;19.796;2022-12-29T04:35:54;95997.45;;;3.06;69.96
52935;BME280;38802;50.198;19.796;2022-12-29T04:38:23;96000.73;;;3.06;69.54
52935;BME280;38802;50.198;19.796;2022-12-29T04:40:52;96002.58;;;3.06;69.85
52935;BME280;38802;50.198;19.796;2022-12-29T04:43:23;96007.56;;;3.06;69.73
52935;BME280;38802;50.198;19.796;2022-12-29T04:46:20;96004.65;;;3.06;69.74
52935;BME280;38802;50.198;19.796;2022-12-29T04:48:56;95999.08;;;3.04;69.67
52935;BME280;38802;50.198;19.796;2022-12-29T04:52:00;95992.36;;;3.05;69.89
52935;BME280;38802;50.198;19.796;2022-12-29T04:54:28;95993.60;;;3.04;69.95
52935;BME280;38802;50.198;19.796;2022-12-29T04:57:06;95999.83;;;3.03;70.05
52935;BME280;38802;50.198;19.796;2022-12-29T04:59:37;95998.33;;;3.02;69.92
52935;BME280;38802;50.198;19.796;2022-12-29T05:02:06;95996.90;;;3.00;69.74
52935;BME280;38802;50.198;19.796;2022-12-29T05:04:35;95999.78;;;2.98;70.09
52935;BME280;38802;50.198;19.796;2022-12-29T05:07:04;95995.00;;;2.98;70.19
52935;BME280;38802;50.198;19.796;2022-12-29T05:09:32;95995.95;;;2.99;70.33
52935;BME280;38802;50.198;19.796;2022-12-29T05:12:01;95995.02;;;3.00;70.24
52935;BME280;38802;50.198;19.796;2022-12-29T05:14:31;95997.25;;;3.00;70.14
52935;BME280;38802;50.198;19.796;2022-12-29T05:17:00;95995.98;;;2.98;70.12
52935;BME280;38802;50.198;19.796;2022-12-29T05:19:28;95992.84;;;2.99;70.09
52935;BME280;38802;50.198;19.796;2022-12-29T05:21:57;95997.23;;;3.00;70.27
52935;BME280;38802;50.198;19.796;2022-12-29T05:24:25;96001.66;;;2.98;70.38
52935;BME280;38802;50.198;19.796;2022-12-29T05:26:57;95998.41;;;2.98;70.43
52935;BME280;38802;50.198;19.796;2022-12-29T05:29:38;96000.20;;;2.96;70.36
52935;BME280;38802;50.198;19.796;2022-12-29T05:32:06;96004.21;;;2.95;70.45
52935;BME280;38802;50.198;19.796;2022-12-29T05:34:35;96007.42;;;2.96;70.48
52935;BME280;38802;50.198;19.796;2022-12-29T05:37:04;96004.39;;;2.95;70.51
52935;BME280;38802;50.198;19.796;2022-12-29T05:39:32;96001.79;;;2.96;70.47
52935;BME280;38802;50.198;19.796;2022-12-29T05:42:03;96004.63;;;2.97;70.58
52935;BME280;38802;50.198;19.796;2022-12-29T05:44:43;96002.55;;;2.98;70.53
52935;BME280;38802;50.198;19.796;2022-12-29T05:47:24;95997.25;;;2.94;70.49
52935;BME280;38802;50.198;19.796;2022-12-29T05:50:08;95995.09;;;2.93;70.23
52935;BME280;38802;50.198;19.796;2022-12-29T05:52:59;95997.58;;;2.89;70.48
52935;BME280;38802;50.198;19.796;2022-12-29T05:55:27;95995.73;;;2.84;70.36
52935;BME280;38802;50.198;19.796;2022-12-29T05:57:56;95992.77;;;2.82;70.31
52935;BME280;38802;50.198;19.796;2022-12-29T06:00:25;95988.17;;;2.81;70.38
52935;BME280;38802;50.198;19.796;2022-12-29T06:02:53;95996.33;;;2.80;70.56
52935;BME280;38802;50.198;19.796;2022-12-29T06:05:22;95985.91;;;2.76;70.55
52935;BME280;38802;50.198;19.796;2022-12-29T06:07:50;95987.11;;;2.79;70.55
52935;BME280;38802;50.198;19.796;2022-12-29T06:10:18;95980.94;;;2.79;70.53
52935;BME280;38802;50.198;19.796;2022-12-29T06:13:02;95977.16;;;2.82;70.86
52935;BME280;38802;50.198;19.796;2022-12-29T06:15:33;95971.48;;;2.82;70.50
52935;BME280;38802;50.198;19.796;2022-12-29T06:18:05;95978.40;;;2.81;70.74
52935;BME280;38802;50.198;19.796;2022-12-29T06:20:34;95980.80;;;2.81;71.04
52935;BME280;38802;50.198;19.796;2022-12-29T06:23:05;95984.96;;;2.83;70.88
52935;BME280;38802;50.198;19.796;2022-12-29T06:25:34;95985.59;;;2.84;70.65
52935;BME280;38802;50.198;19.796;2022-12-29T06:28:05;95983.58;;;2.87;70.57
52935;BME280;38802;50.198;19.796;2022-12-29T06:30:33;95981.57;;;2.89;70.78
52935;BME280;38802;50.198;19.796;2022-12-29T06:33:02;95985.75;;;2.91;71.13
52935;BME280;38802;50.198;19.796;2022-12-29T06:35:31;95993.34;;;2.93;70.93
52935;BME280;38802;50.198;19.796;2022-12-29T06:38:00;95989.80;;;2.95;71.13
52935;BME280;38802;50.198;19.796;2022-12-29T06:40:29;95986.04;;;3.01;71.19
52935;BME280;38802;50.198;19.796;2022-12-29T06:43:21;95981.47;;;3.06;71.25
52935;BME280;38802;50.198;19.796;2022-12-29T06:46:18;95977.66;;;3.10;71.30
52935;BME280;38802;50.198;19.796;2022-12-29T06:48:46;95973.06;;;3.12;71.32
52935;BME280;38802;50.198;19.796;2022-12-29T06:51:15;95968.83;;;3.14;71.31
52935;BME280;38802;50.198;19.796;2022-12-29T06:53:44;95969.13;;;3.18;71.03
52935;BME280;38802;50.198;19.796;2022-12-29T06:56:12;95970.96;;;3.16;70.74
52935;BME280;38802;50.198;19.796;2022-12-29T06:58:40;95974.11;;;3.12;71.00
52935;BME280;38802;50.198;19.796;2022-12-29T07:01:08;95971.70;;;3.09;70.71
52935;BME280;38802;50.198;19.796;2022-12-29T07:03:37;95980.80;;;3.06;70.86
52935;BME280;38802;50.198;19.796;2022-12-29T07:06:05;95987.11;;;3.07;70.90
52935;BME280;38802;50.198;19.796;2022-12-29T07:08:34;95998.87;;;3.08;70.93
52935;BME280;38802;50.198;19.796;2022-12-29T07:11:02;96003.62;;;3.09;70.85
52935;BME280;38802;50.198;19.796;2022-12-29T07:13:30;96001.29;;;3.11;71.02
52935;BME280;38802;50.198;19.796;2022-12-29T07:15:58;96005.59;;;3.17;71.24
52935;BME280;38802;50.198;19.796;2022-12-29T07:18:27;96005.48;;;3.22;71.21
52935;BME280;38802;50.198;19.796;2022-12-29T07:20:55;95995.17;;;3.25;71.15
52935;BME280;38802;50.198;19.796;2022-12-29T07:23:23;95991.34;;;3.26;71.01
52935;BME280;38802;50.198;19.796;2022-12-29T07:26:02;95993.73;;;3.26;71.00
52935;BME280;38802;50.198;19.796;2022-12-29T07:28:31;95996.02;;;3.31;71.27
52935;BME280;38802;50.198;19.796;2022-12-29T07:31:01;96000.80;;;3.34;71.25
52935;BME280;38802;50.198;19.796;2022-12-29T07:33:30;95994.27;;;3.37;71.08
52935;BME280;38802;50.198;19.796;2022-12-29T07:35:59;95988.67;;;3.42;71.16
52935;BME280;38802;50.198;19.796;2022-12-29T07:38:28;95980.59;;;3.49;71.22
52935;BME280;38802;50.198;19.796;2022-12-29T07:40:57;95976.33;;;3.54;71.32
52935;BME280;38802;50.198;19.796;2022-12-29T07:43:26;95970.14;;;3.54;71.01
52935;BME280;38802;50.198;19.796;2022-12-29T07:46:24;95965.89;;;3.51;71.23
52935;BME280;38802;50.198;19.796;2022-12-29T07:49:12;95963.50;;;3.47;70.78
52935;BME280;38802;50.198;19.796;2022-12-29T07:51:40;95968.05;;;3.42;70.86
52935;BME280;38802;50.198;19.796;2022-12-29T07:54:09;95968.98;;;3.41;70.98
52935;BME280;38802;50.198;19.796;2022-12-29T07:56:38;95970.59;;;3.43;70.81
52935;BME280;38802;50.198;19.796;2022-12-29T07:59:06;95967.80;;;3.44;70.83
52935;BME280;38802;50.198;19.796;2022-12-29T08:01:35;95968.16;;;3.47;70.66
52935;BME280;38802;50.198;19.796;2022-12-29T08:04:05;95970.95;;;3.52;70.70
52935;BME280;38802;50.198;19.796;2022-12-29T08:06:33;95977.54;;;3.60;70.98
52935;BME280;38802;50.198;19.796;2022-12-29T08:09:01;95978.63;;;3.64;71.08
52935;BME280;38802;50.198;19.796;2022-12-29T08:11:41;95982.36;;;3.71;70.96
52935;BME280;38802;50.198;19.796;2022-12-29T08:14:11;95980.89;;;3.75;70.90
52935;BME280;38802;50.198;19.796;2022-12-29T08:16:39;95983.20;;;3.80;70.82
52935;BME280;38802;50.198;19.796;2022-12-29T08:19:11;95994.44;;;3.84;70.64
52935;BME280;38802;50.198;19.796;2022-12-29T08:21:39;95993.57;;;3.87;71.00
52935;BME280;38802;50.198;19.796;2022-12-29T08:24:08;95994.84;;;3.93;70.87
52935;BME280;38802;50.198;19.796;2022-12-29T08:26:37;95998.77;;;3.98;70.47
52935;BME280;38802;50.198;19.796;2022-12-29T08:29:05;95994.31;;;4.04;70.74
52935;BME280;38802;50.198;19.796;2022-12-29T08:31:34;95998.79;;;4.09;70.59
52935;BME280;38802;50.198;19.796;2022-12-29T08:34:03;95994.31;;;4.16;70.79
52935;BME280;38802;50.198;19.796;2022-12-29T08:36:31;95988.77;;;4.22;70.38
52935;BME280;38802;50.198;19.796;2022-12-29T08:39:00;95994.07;;;4.30;70.50
52935;BME280;38802;50.198;19.796;2022-12-29T08:41:28;95994.02;;;4.40;70.35
52935;BME280;38802;50.198;19.796;2022-12-29T08:43:56;95991.30;;;4.48;70.32
52935;BME280;38802;50.198;19.796;2022-12-29T08:46:25;95990.80;;;4.56;70.31
52935;BME280;38802;50.198;19.796;2022-12-29T08:48:54;95984.21;;;4.64;70.30
52935;BME280;38802;50.198;19.796;2022-12-29T08:51:22;95980.27;;;4.72;70.19
52935;BME280;38802;50.198;19.796;2022-12-29T08:53:52;95972.94;;;4.80;69.95
52935;BME280;38802;50.198;19.796;2022-12-29T08:56:21;95969.94;;;4.87;69.90
52935;BME280;38802;50.198;19.796;2022-12-29T08:58:52;95973.91;;;4.94;69.53
52935;BME280;38802;50.198;19.796;2022-12-29T09:01:23;95971.20;;;5.01;69.57
52935;BME280;38802;50.198;19.796;2022-12-29T09:03:53;95969.36;;;5.09;69.90
52935;BME280;38802;50.198;19.796;2022-12-29T09:06:43;95962.44;;;5.17;69.60
52935;BME280;38802;50.198;19.796;2022-12-29T09:09:12;95964.90;;;5.22;69.46
52935;BME280;38802;50.198;19.796;2022-12-29T09:11:40;95965.52;;;5.26;69.55
52935;BME280;38802;50.198;19.796;2022-12-29T09:14:09;95961.52;;;5.29;69.41
52935;BME280;38802;50.198;19.796;2022-12-29T09:16:37;95955.77;;;5.32;69.09
52935;BME280;38802;50.198;19.796;2022-12-29T09:19:06;95959.52;;;5.35;69.32
52935;BME280;38802;50.198;19.796;2022-12-29T09:21:34;95962.23;;;5.39;69.18
52935;BME280;38802;50.198;19.796;2022-12-29T09:24:02;95958.78;;;5.44;69.11
52935;BME280;38802;50.198;19.796;2022-12-29T09:26:30;95958.48;;;5.49;69.29
52935;BME280;38802;50.198;19.796;2022-12-29T09:28:58;95962.42;;;5.54;69.35
52935;BME280;38802;50.198;19.796;2022-12-29T09:31:27;95960.02;;;5.59;69.17
52935;BME280;38802;50.198;19.796;2022-12-29T09:33:55;95960.98;;;5.62;69.03
52935;BME280;38802;50.198;19.796;2022-12-29T09:36:23;95956.84;;;5.68;68.87
52935;BME280;38802;50.198;19.796;2022-12-29T09:38:53;95959.34;;;5.74;68.83
52935;BME280;38802;50.198;19.796;2022-12-29T09:41:29;95956.56;;;5.82;68.48
52935;BME280;38802;50.198;19.796;2022-12-29T09:44:12;95958.64;;;5.90;68.50
52935;BME280;38802;50.198;19.796;2022-12-29T09:46:44;95961.11;;;5.97;68.17
52935;BME280;38802;50.198;19.796;2022-12-29T09:52:09;95955.58;;;6.10;68.19
52935;BME280;38802;50.198;19.796;2022-12-29T09:54:53;95958.31;;;6.18;67.84
52935;BME280;38802;50.198;19.796;2022-12-29T09:58:02;95955.45;;;6.24;67.92
52935;BME280;38802;50.198;19.796;2022-12-29T10:00:54;95949.78;;;6.28;68.06
52935;BME280;38802;50.198;19.796;2022-12-29T10:03:53;95950.00;;;6.33;67.86
52935;BME280;38802;50.198;19.796;2022-12-29T10:09:53;95951.82;;;6.46;67.88
52935;BME280;38802;50.198;19.796;2022-12-29T10:24:26;95925.80;;;6.70;67.70
52935;BME280;38802;50.198;19.796;2022-12-29T10:27:12;95926.23;;;6.76;67.31
52935;BME280;38802;50.198;19.796;2022-12-29T10:29:44;95928.85;;;6.81;67.04
52935;BME280;38802;50.198;19.796;2022-12-29T10:32:34;95925.96;;;6.87;67.52
52935;BME280;38802;50.198;19.796;2022-12-29T10:35:18;95918.11;;;6.98;67.13
52935;BME280;38802;50.198;19.796;2022-12-29T10:40:53;95909.55;;;7.17;66.90
52935;BME280;38802;50.198;19.796;2022-12-29T10:43:53;95913.25;;;7.23;66.90
52935;BME280;38802;50.198;19.796;2022-12-29T10:46:32;95919.41;;;7.29;66.93
52935;BME280;38802;50.198;19.796;2022-12-29T10:49:02;95918.61;;;7.33;66.69
52935;BME280;38802;50.198;19.796;2022-12-29T10:51:42;95915.30;;;7.35;66.89
52935;BME280;38802;50.198;19.796;2022-12-29T10:54:23;95910.03;;;7.39;66.98
52935;BME280;38802;50.198;19.796;2022-12-29T10:56:59;95910.82;;;7.43;66.50
52935;BME280;38802;50.198;19.796;2022-12-29T10:59:32;95911.13;;;7.48;66.72
52935;BME280;38802;50.198;19.796;2022-12-29T11:07:19;95903.17;;;7.54;66.79
52935;BME280;38802;50.198;19.796;2022-12-29T11:09:54;95900.35;;;7.58;66.92
52935;BME280;38802;50.198;19.796;2022-12-29T11:12:28;95897.85;;;7.59;66.75
52935;BME280;38802;50.198;19.796;2022-12-29T11:20:29;95892.10;;;7.61;66.90
52935;BME280;38802;50.198;19.796;2022-12-29T11:22:58;95886.44;;;7.65;66.59
52935;BME280;38802;50.198;19.796;2022-12-29T11:25:27;95882.91;;;7.71;66.71
52935;BME280;38802;50.198;19.796;2022-12-29T11:28:15;95879.16;;;7.76;67.00
52935;BME280;38802;50.198;19.796;2022-12-29T11:30:44;95879.89;;;7.83;67.05
52935;BME280;38802;50.198;19.796;2022-12-29T11:33:12;95885.17;;;7.89;66.00
52935;BME280;38802;50.198;19.796;2022-12-29T11:35:42;95887.39;;;7.92;66.73
52935;BME280;38802;50.198;19.796;2022-12-29T11:38:25;95892.52;;;7.95;66.42
52935;BME280;38802;50.198;19.796;2022-12-29T11:40:53;95897.27;;;7.98;66.40
52935;BME280;38802;50.198;19.796;2022-12-29T11:43:34;95897.38;;;8.01;66.24
52935;BME280;38802;50.198;19.796;2022-12-29T11:46:05;95898.12;;;8.02;66.11
52935;BME280;38802;50.198;19.796;2022-12-29T11:48:43;95899.25;;;8.01;66.12
52935;BME280;38802;50.198;19.796;2022-12-29T11:51:22;95901.27;;;8.00;66.26
52935;BME280;38802;50.198;19.796;2022-12-29T11:53:57;95899.25;;;7.99;65.71
52935;BME280;38802;50.198;19.796;2022-12-29T11:56:40;95897.38;;;7.97;65.76
52935;BME280;38802;50.198;19.796;2022-12-29T11:59:43;95898.73;;;7.92;65.69
52935;BME280;38802;50.198;19.796;2022-12-29T12:02:45;95902.56;;;7.87;65.75
52935;BME280;38802;50.198;19.796;2022-12-29T12:05:20;95896.59;;;7.84;66.04
52935;BME280;38802;50.198;19.796;2022-12-29T12:07:56;95896.40;;;7.82;66.12
52935;BME280;38802;50.198;19.796;2022-12-29T12:10:35;95897.20;;;7.81;65.95
52935;BME280;38802;50.198;19.796;2022-12-29T12:13:31;95892.80;;;7.77;66.27
52935;BME280;38802;50.198;19.796;2022-12-29T12:16:24;95895.59;;;7.77;66.37
52935;BME280;38802;50.198;19.796;2022-12-29T12:21:40;95894.30;;;7.75;66.27
52935;BME280;38802;50.198;19.796;2022-12-29T12:24:34;95891.30;;;7.76;66.31
52935;BME280;38802;50.198;19.796;2022-12-29T12:27:13;95890.34;;;7.80;66.58
52935;BME280;38802;50.198;19.796;2022-12-29T12:32:52;95882.44;;;7.88;66.24
52935;BME280;38802;50.198;19.796;2022-12-29T12:40:55;95886.94;;;7.97;66.33
52935;BME280;38802;50.198;19.796;2022-12-29T12:51:50;95887.15;;;8.03;66.36
52935;BME280;38802;50.198;19.796;2022-12-29T12:58:01;95881.84;;;8.03;66.49
52935;BME280;38802;50.198;19.796;2022-12-29T13:03:36;95880.34;;;8.02;66.36
52935;BME280;38802;50.198;19.796;2022-12-29T13:06:32;95882.14;;;8.01;66.49
52935;BME280;38802;50.198;19.796;2022-12-29T13:09:25;95886.46;;;8.01;66.46
52935;BME280;38802;50.198;19.796;2022-12-29T13:19:59;95902.43;;;7.98;66.61
52935;BME280;38802;50.198;19.796;2022-12-29T13:22:43;95904.25;;;7.97;66.03
52935;BME280;38802;50.198;19.796;2022-12-29T13:28:24;95910.86;;;8.01;66.49
52935;BME280;38802;50.198;19.796;2022-12-29T13:39:12;95897.98;;;7.88;66.35
52935;BME280;38802;50.198;19.796;2022-12-29T13:41:53;95895.51;;;7.87;66.54
52935;BME280;38802;50.198;19.796;2022-12-29T13:44:37;95891.59;;;7.84;66.47
52935;BME280;38802;50.198;19.796;2022-12-29T13:50:10;95885.01;;;7.79;66.83
52935;BME280;38802;50.198;19.796;2022-12-29T13:53:03;95891.95;;;7.79;66.73
52935;BME280;38802;50.198;19.796;2022-12-29T13:55:44;95891.98;;;7.76;66.86
52935;BME280;38802;50.198;19.796;2022-12-29T14:06:16;95897.08;;;7.64;66.90
52935;BME280;38802;50.198;19.796;2022-12-29T14:08:48;95901.79;;;7.64;67.21
52935;BME280;38802;50.198;19.796;2022-12-29T14:11:21;95901.15;;;7.61;67.11
52935;BME280;38802;50.198;19.796;2022-12-29T14:13:51;95905.34;;;7.58;67.08
52935;BME280;38802;50.198;19.796;2022-12-29T14:16:35;95903.55;;;7.54;67.28
52935;BME280;38802;50.198;19.796;2022-12-29T14:19:14;95901.41;;;7.53;67.23
52935;BME280;38802;50.198;19.796;2022-12-29T14:21:55;95900.67;;;7.51;67.41
52935;BME280;38802;50.198;19.796;2022-12-29T14:29:49;95897.17;;;7.40;67.50
52935;BME280;38802;50.198;19.796;2022-12-29T14:34:53;95901.34;;;7.31;67.51
52935;BME280;38802;50.198;19.796;2022-12-29T14:40:15;95905.13;;;7.19;67.60
52935;BME280;38802;50.198;19.796;2022-12-29T14:42:50;95906.21;;;7.11;67.69
52935;BME280;38802;50.198;19.796;2022-12-29T14:47:50;95903.96;;;6.98;67.97
52935;BME280;38802;50.198;19.796;2022-12-29T14:52:56;95904.36;;;6.87;68.10
52935;BME280;38802;50.198;19.796;2022-12-29T14:55:46;95906.12;;;6.84;68.25
52935;BME280;38802;50.198;19.796;2022-12-29T14:58:27;95906.73;;;6.78;68.24
52935;BME280;38802;50.198;19.796;2022-12-29T15:00:58;95906.13;;;6.75;68.35
52935;BME280;38802;50.198;19.796;2022-12-29T15:03:42;95904.40;;;6.72;68.31
52935;BME280;38802;50.198;19.796;2022-12-29T15:06:16;95909.96;;;6.70;68.54
52935;BME280;38802;50.198;19.796;2022-12-29T15:08:59;95911.36;;;6.67;68.57
52935;BME280;38802;50.198;19.796;2022-12-29T15:14:27;95912.54;;;6.63;68.74
52935;BME280;38802;50.198;19.796;2022-12-29T15:16:56;95907.80;;;6.61;68.96
52935;BME280;38802;50.198;19.796;2022-12-29T15:19:26;95909.55;;;6.61;68.78
52935;BME280;38802;50.198;19.796;2022-12-29T15:21:55;95907.48;;;6.58;68.70
52935;BME280;38802;50.198;19.796;2022-12-29T15:24:24;95910.41;;;6.58;68.84
52935;BME280;38802;50.198;19.796;2022-12-29T15:26:53;95911.63;;;6.58;68.96
52935;BME280;38802;50.198;19.796;2022-12-29T15:29:35;95910.09;;;6.56;68.88
52935;BME280;38802;50.198;19.796;2022-12-29T15:32:27;95909.98;;;6.52;68.82
52935;BME280;38802;50.198;19.796;2022-12-29T15:34:57;95908.84;;;6.49;69.04
52935;BME280;38802;50.198;19.796;2022-12-29T15:37:37;95910.54;;;6.44;69.03
52935;BME280;38802;50.198;19.796;2022-12-29T15:40:21;95917.17;;;6.41;68.99
52935;BME280;38802;50.198;19.796;2022-12-29T15:45:33;95914.66;;;6.35;69.05
52935;BME280;38802;50.198;19.796;2022-12-29T15:48:04;95914.52;;;6.29;69.06
52935;BME280;38802;50.198;19.796;2022-12-29T15:50:35;95914.69;;;6.22;68.95
52935;BME280;38802;50.198;19.796;2022-12-29T15:53:10;95912.48;;;6.15;68.94
52935;BME280;38802;50.198;19.796;2022-12-29T15:55:41;95911.64;;;6.07;68.87
52935;BME280;38802;50.198;19.796;2022-12-29T15:58:40;95915.27;;;6.02;69.04
52935;BME280;38802;50.198;19.796;2022-12-29T16:01:23;95916.08;;;5.97;69.15
52935;BME280;38802;50.198;19.796;2022-12-29T16:03:55;95912.85;;;5.92;69.22
52935;BME280;38802;50.198;19.796;2022-12-29T16:08:58;95916.98;;;5.84;69.42
52935;BME280;38802;50.198;19.796;2022-12-29T16:11:37;95920.76;;;5.82;69.32